Garner, Iowa
Current Conditions -  °F | °C
As of 6:35 PM on Monday 24 Nov 2014 (Local Time) from KFXY Reporting Station
Light Snow Light Snow  
Wind Chill: -15°   Ceiling: 1800
Heat Index: -7°   Visibility: 2.5mi
Dew Point: -9°   Wind: 16mph
Humidity: 86%   Direction: 300°WNW
Pressure: 29.79"   Gusts: 24mph
Location:  43.1°N, 93.6°W
Report Text: KFXY 250035Z AUTO 30014G21KT 2 1/2SM -SN OVC018 M07/M09 A2979 RMK AO2
Loading
Personal Weather Stations






























Interactive Weather Map New forecast layout! Learn more

10-Day Weather Forecast

Advertisements
Track Severe Weather on mobile